Time;durP1;ratioP1;P1;durP2;ratioP2;P2;SDS_P1;SDS_P2;PMS_P1;PMS_P2;Temp;Humidity;BMP_temperature;BMP_pressure;BME280_temperature;BME280_humidity;BME280_pressure;Samples;Min_cycle;Max_cycle;Signal;HPM_P1;HPM_P2
2022/05/31 00:01:06;;;;;;;1.30;1.20;;;9.40;99.90;;;8.85;82.13;96818.03;4996669;28;20644;-38
2022/05/31 00:03:32;;;;;;;1.20;1.08;;;9.30;99.90;;;8.82;81.99;96822.56;5006581;28;20075;-39
2022/05/31 00:05:58;;;;;;;1.20;1.10;;;9.30;99.90;;;8.72;82.21;96806.28;5000482;28;20501;-38
2022/05/31 00:08:24;;;;;;;3.55;1.27;;;9.20;99.90;;;8.68;83.11;96808.16;5000999;28;20041;-39
2022/05/31 00:10:50;;;;;;;1.67;1.30;;;9.20;99.90;;;8.50;83.39;96787.84;4999705;28;20064;-38
2022/05/31 00:13:15;;;;;;;2.13;1.38;;;9.10;99.90;;;8.64;83.53;96824.97;4998573;28;20037;-38
2022/05/31 00:15:41;;;;;;;2.55;1.10;;;9.10;99.90;;;8.61;83.31;96814.56;4994393;28;20038;-38
2022/05/31 00:18:08;;;;;;;1.42;1.20;;;9.10;99.90;;;8.53;83.53;96798.25;4995176;28;20030;-38
2022/05/31 00:20:34;;;;;;;2.00;1.20;;;9.00;99.90;;;8.51;83.74;96808.84;4994612;28;20049;-38
2022/05/31 00:23:00;;;;;;;1.95;1.20;;;9.00;99.90;;;8.52;83.80;96815.78;4999471;28;20037;-38
2022/05/31 00:25:26;;;;;;;3.13;1.45;;;9.00;99.90;;;8.49;84.59;96812.41;5012277;23;20053;-39
2022/05/31 00:27:52;;;;;;;2.45;1.38;;;9.00;99.90;;;8.45;85.25;96803.78;4999344;28;20643;-40
2022/05/31 00:30:17;;;;;;;2.13;1.30;;;8.90;99.90;;;8.42;85.40;96806.56;5008644;28;20044;-39
2022/05/31 00:32:49;;;;;;;3.08;1.55;;;8.90;99.90;;;8.39;85.27;96806.63;5003352;28;20076;-39
2022/05/31 00:35:36;;;;;;;2.03;1.30;;;8.90;99.90;;;8.33;85.35;96802.47;5008894;28;20072;-39
2022/05/31 00:38:02;;;;;;;2.22;1.40;;;8.80;99.90;;;8.29;85.45;96802.63;5003918;28;20160;-39
2022/05/31 00:40:31;;;;;;;2.35;1.40;;;8.80;99.90;;;8.28;84.66;96800.94;5002741;28;20544;-39
2022/05/31 00:43:01;;;;;;;1.75;1.20;;;8.70;99.90;;;8.29;84.59;96800.00;5000883;28;20832;-39
2022/05/31 00:45:45;;;;;;;1.67;1.23;;;8.70;99.90;;;8.27;84.43;96805.31;4997410;28;20068;-40
2022/05/31 00:48:23;;;;;;;2.17;1.30;;;8.70;99.90;;;8.25;84.59;96799.25;5000027;28;20029;-40
2022/05/31 00:51:06;;;;;;;2.00;1.45;;;8.70;99.90;;;8.20;84.68;96788.06;4999986;28;20037;-40
2022/05/31 00:53:38;;;;;;;2.78;1.50;;;8.70;99.90;;;8.20;84.32;96794.19;5001875;28;20084;-40
2022/05/31 00:56:08;;;;;;;;;;;8.70;99.90;;;8.18;85.26;96792.53;5004678;28;20099;-40
2022/05/31 00:58:44;;;;;;;3.33;1.50;;;8.60;99.90;;;8.15;85.38;96796.13;4999100;28;19921;-40
2022/05/31 01:01:14;;;;;;;2.75;1.63;;;8.60;99.90;;;8.14;86.69;96804.91;5004474;28;20037;-39
2022/05/31 01:03:42;;;;;;;1.65;1.40;;;8.60;99.90;;;8.11;86.05;96801.53;5008419;28;20029;-44
2022/05/31 01:06:10;;;;;;;2.40;1.63;;;8.60;99.90;;;8.08;86.28;96793.78;5006907;28;20029;-39
2022/05/31 01:08:37;;;;;;;1.55;1.30;;;8.50;99.90;;;8.08;86.20;96796.41;5009485;28;20094;-40
2022/05/31 01:11:04;;;;;;;1.80;1.27;;;8.50;99.90;;;8.06;86.55;96795.59;5001688;28;20030;-39
2022/05/31 01:13:30;;;;;;;2.35;1.52;;;8.50;99.90;;;8.03;86.58;96793.94;5005066;28;20516;-40
2022/05/31 01:16:13;;;;;;;2.05;1.40;;;8.50;99.90;;;7.98;86.71;96793.25;5005049;28;20068;-39
2022/05/31 01:18:39;;;;;;;1.30;1.20;;;8.50;99.90;;;8.02;87.42;96797.47;5006224;28;20051;-39
2022/05/31 01:21:06;;;;;;;2.03;1.27;;;8.50;99.90;;;8.01;87.49;96807.13;5007398;28;20898;-39
2022/05/31 01:23:47;;;;;;;1.80;1.38;;;8.50;99.90;;;7.99;87.96;96802.84;5013121;28;20029;-39
2022/05/31 01:26:24;;;;;;;2.05;1.50;;;8.50;99.90;;;7.80;88.86;96777.25;5021127;28;20045;-39
2022/05/31 01:29:08;;;;;;;2.67;1.63;;;8.40;99.90;;;7.92;89.49;96804.00;5001541;28;20037;-40
2022/05/31 01:31:50;;;;;;;2.50;1.70;;;8.40;99.90;;;7.91;89.47;96810.13;5018786;28;20076;-39
2022/05/31 01:34:19;;;;;;;3.15;1.40;;;8.40;99.90;;;7.89;89.79;96802.31;5006598;28;20033;-39
2022/05/31 01:36:52;;;;;;;2.80;1.45;;;8.40;99.90;;;7.87;90.11;96792.78;5005354;28;21998;-39
2022/05/31 01:39:45;;;;;;;2.55;1.70;;;8.40;99.90;;;7.87;90.46;96788.38;5008775;28;20330;-39
2022/05/31 01:42:31;;;;;;;1.48;1.38;;;8.40;99.90;;;7.88;89.93;96790.13;4993587;28;21725;-39
2022/05/31 01:45:27;;;;;;;2.63;1.85;;;8.30;99.90;;;7.88;89.50;96784.00;5006364;28;20060;-39
2022/05/31 01:47:58;;;;;;;2.15;1.50;;;8.40;99.90;;;7.93;89.36;96792.56;5002029;28;20045;-40
2022/05/31 01:50:24;;;;;;;2.50;1.52;;;8.40;99.90;;;7.90;89.54;96788.28;5006929;28;20036;-39
2022/05/31 01:52:51;;;;;;;1.75;1.50;;;8.40;99.90;;;7.91;89.47;96794.38;5006868;28;20041;-39
2022/05/31 01:55:18;;;;;;;2.80;1.48;;;8.40;99.90;;;7.84;90.35;96778.88;5006105;28;20032;-39
2022/05/31 01:57:49;;;;;;;4.93;1.48;;;8.40;99.90;;;7.75;90.74;96773.94;5005918;28;20670;-39
2022/05/31 02:00:16;;;;;;;2.93;1.40;;;8.40;99.90;;;7.94;90.63;96799.53;5007323;28;20104;-39
2022/05/31 02:02:51;;;;;;;2.08;1.45;;;8.40;99.90;;;7.97;90.28;96794.19;5004868;28;20040;-39
2022/05/31 02:05:18;;;;;;;4.35;1.60;;;8.40;99.90;;;8.00;89.73;96791.41;5003876;28;20105;-39
2022/05/31 02:07:57;;;;;;;2.95;1.20;;;8.50;99.90;;;7.98;89.68;96778.34;4998140;28;20111;-39
2022/05/31 02:10:23;;;;;;;2.25;1.40;;;8.40;99.90;;;7.88;89.95;96782.25;4998494;28;20055;-39
2022/05/31 02:12:50;;;;;;;2.30;1.55;;;8.40;99.90;;;7.91;90.01;96789.97;4997835;28;20086;-39
2022/05/31 02:15:18;;;;;;;1.75;1.55;;;8.40;99.90;;;7.90;89.41;96787.44;5004515;28;20083;-39
2022/05/31 02:17:43;;;;;;;2.67;1.55;;;8.40;99.90;;;7.88;89.74;96794.47;5004129;28;20060;-39
2022/05/31 02:20:10;;;;;;;2.03;1.30;;;8.40;99.90;;;7.87;89.73;96792.78;5002697;28;20021;-39
2022/05/31 02:22:36;;;;;;;1.60;1.25;;;8.30;99.90;;;7.87;90.12;96790.16;5001556;28;20025;-39
2022/05/31 02:25:02;;;;;;;3.42;1.70;;;8.30;99.90;;;7.85;90.44;96792.84;4999600;28;21263;-39
2022/05/31 02:27:29;;;;;;;2.88;1.58;;;8.30;99.90;;;7.82;91.44;96788.56;4997159;28;20073;-39
2022/05/31 02:29:56;;;;;;;2.45;1.50;;;8.30;99.90;;;7.78;92.34;96786.09;4995763;28;20029;-39
2022/05/31 02:32:21;;;;;;;3.22;1.80;;;8.30;99.90;;;7.74;92.37;96790.59;4999067;28;20025;-39
2022/05/31 02:34:50;;;;;;;3.33;2.00;;;8.20;99.90;;;7.71;92.38;96789.84;4996762;28;20064;-39
2022/05/31 02:37:18;;;;;;;2.03;1.60;;;8.20;99.90;;;7.60;92.73;96775.31;5000698;28;20079;-39
2022/05/31 02:39:44;;;;;;;2.10;1.33;;;8.20;99.90;;;7.59;92.79;96793.75;4999025;28;20120;-39
2022/05/31 02:42:11;;;;;;;2.55;1.50;;;8.10;99.90;;;7.54;92.56;96785.22;5001554;28;20367;-39
2022/05/31 02:44:38;;;;;;;1.92;1.40;;;8.10;99.90;;;7.52;92.13;96792.25;4998843;28;20037;-39
2022/05/31 02:47:05;;;;;;;2.85;1.58;;;8.00;99.90;;;7.51;92.45;96791.41;4996831;28;20099;-39
2022/05/31 02:49:31;;;;;;;1.73;1.30;;;8.00;99.90;;;7.44;92.69;96784.66;4996606;28;20569;-39
2022/05/31 02:51:58;;;;;;;1.88;1.40;;;8.00;99.90;;;7.47;93.32;96794.19;5005120;28;20037;-39
2022/05/31 02:54:24;;;;;;;4.30;1.58;;;7.90;99.90;;;7.42;93.71;96799.59;5005724;28;20030;-39
2022/05/31 02:56:50;;;;;;;1.83;1.33;;;7.90;99.90;;;7.40;93.94;96799.63;5008747;28;21853;-39
2022/05/31 02:59:16;;;;;;;2.47;1.70;;;7.90;99.90;;;7.36;94.08;96794.56;5000283;28;20030;-39
2022/05/31 03:01:44;;;;;;;3.45;1.85;;;7.90;99.90;;;7.33;94.67;96798.13;4995685;28;20726;-39
2022/05/31 03:04:11;;;;;;;2.83;1.65;;;7.80;99.90;;;7.29;94.56;96798.31;4999295;28;20045;-39
2022/05/31 03:06:37;;;;;;;2.05;1.50;;;7.80;99.90;;;7.24;94.75;96796.66;4999663;28;20029;-39
2022/05/31 03:09:04;;;;;;;2.60;1.70;;;7.80;99.90;;;7.21;95.53;96795.91;4998570;28;20042;-39
2022/05/31 03:11:56;;;;;;;4.75;1.50;;;7.70;99.90;;;7.17;96.09;96799.56;4997885;28;20041;-39
2022/05/31 03:14:46;;;;;;;2.42;1.52;;;7.70;99.90;;;7.16;97.03;96801.31;5015434;28;20284;-39
2022/05/31 03:17:26;;;;;;;2.50;1.60;;;7.60;99.90;;;7.17;97.06;96796.94;4998631;28;20033;-39
2022/05/31 03:20:18;;;;;;;2.50;1.80;;;7.70;99.90;;;7.25;95.96;96792.31;4997964;28;20067;-39
2022/05/31 03:22:58;;;;;;;3.25;2.10;;;7.80;99.90;;;7.33;94.88;96789.41;4998798;28;21298;-39
2022/05/31 03:25:27;;;;;;;1.73;1.40;;;7.80;99.90;;;7.35;94.83;96791.06;5016290;28;20121;-39
2022/05/31 03:27:58;;;;;;;2.50;1.80;;;7.80;99.90;;;7.35;95.76;96785.81;5000411;28;20473;-39
2022/05/31 03:30:24;;;;;;;3.05;1.60;;;7.80;99.90;;;7.34;95.76;96788.47;5013701;28;20076;-39
2022/05/31 03:32:52;;;;;;;2.22;1.60;;;7.80;99.90;;;7.20;95.66;96771.47;5001312;28;20033;-39
2022/05/31 03:35:17;;;;;;;2.72;1.50;;;7.90;99.90;;;7.34;96.40;96786.75;4996270;28;20036;-39
2022/05/31 03:37:43;;;;;;;1.95;1.50;;;7.90;99.90;;;7.40;96.87;96789.16;5005630;28;20541;-39
2022/05/31 03:40:10;;;;;;;3.83;1.83;;;7.90;99.90;;;7.44;96.98;96788.13;5002334;28;20125;-39
2022/05/31 03:42:36;;;;;;;3.50;1.85;;;8.00;99.90;;;7.56;97.02;96786.84;5004032;28;20258;-39
2022/05/31 03:45:01;;;;;;;2.40;1.65;;;8.10;99.90;;;7.75;96.75;96794.94;5001763;28;20034;-39
2022/05/31 03:47:27;;;;;;;2.10;1.83;;;8.20;99.90;;;7.89;95.63;96791.81;5003310;28;20063;-39
2022/05/31 03:49:53;;;;;;;4.18;1.80;;;8.40;99.90;;;8.02;95.08;96790.47;4999149;28;20101;-39
2022/05/31 03:52:19;;;;;;;3.03;1.63;;;8.50;99.90;;;8.11;94.97;96788.41;5004574;28;20493;-39
2022/05/31 03:54:45;;;;;;;2.30;1.67;;;8.60;99.90;;;8.13;95.40;96797.06;5002100;28;20044;-39
2022/05/31 03:57:18;;;;;;;2.97;1.80;;;8.60;99.90;;;8.15;95.09;96792.66;5003688;28;20033;-39
2022/05/31 03:59:43;;;;;;;3.42;1.73;;;8.70;99.90;;;8.18;94.82;96792.53;5003191;28;20387;-39
2022/05/31 04:02:09;;;;;;;3.85;1.75;;;8.70;99.90;;;8.19;94.75;96784.59;5000056;28;20032;-39
2022/05/31 04:04:36;;;;;;;2.60;1.65;;;8.70;99.90;;;8.21;94.38;96780.13;4990901;28;20038;-39
2022/05/31 04:07:03;;;;;;;3.15;1.67;;;8.70;99.90;;;8.18;94.76;96785.50;4997307;28;20064;-39
2022/05/31 04:09:29;;;;;;;2.22;1.42;;;8.70;99.90;;;8.13;95.10;96787.44;4996520;28;20644;-39
2022/05/31 04:11:57;;;;;;;2.70;1.85;;;8.60;99.90;;;8.09;95.68;96793.72;4999787;28;20053;-38
2022/05/31 04:14:22;;;;;;;3.17;2.05;;;8.60;99.90;;;8.07;96.27;96786.81;4996476;28;20041;-39
2022/05/31 04:16:48;;;;;;;2.42;1.70;;;8.50;99.90;;;8.02;96.50;96782.59;4997240;28;20127;-38
2022/05/31 04:19:14;;;;;;;2.60;1.80;;;8.50;99.90;;;8.01;97.02;96774.78;4998136;28;20048;-39
2022/05/31 04:21:40;;;;;;;1.95;1.75;;;8.50;99.90;;;7.96;97.12;96776.69;4995536;28;20051;-39
2022/05/31 04:24:11;;;;;;;4.35;2.03;;;8.50;99.90;;;8.02;97.19;96785.22;4999535;28;20036;-39
2022/05/31 04:26:45;;;;;;;3.38;1.73;;;8.50;99.90;;;8.09;97.50;96785.84;4998352;28;20692;-39
2022/05/31 04:29:11;;;;;;;2.58;1.70;;;8.50;99.90;;;8.11;97.75;96777.91;5002692;28;20078;-39
2022/05/31 04:31:37;;;;;;;3.40;1.90;;;8.60;99.90;;;8.10;97.56;96774.44;4989633;28;20671;-39
2022/05/31 04:34:04;;;;;;;4.57;1.95;;;8.60;99.90;;;8.13;98.01;96770.81;5009564;28;20037;-39
2022/05/31 04:36:30;;;;;;;2.80;2.00;;;8.60;99.90;;;8.21;97.76;96767.00;5006212;28;20053;-39
2022/05/31 04:38:56;;;;;;;5.20;1.80;;;8.70;99.90;;;8.29;97.33;96760.59;5000964;28;20953;-38
2022/05/31 04:41:28;;;;;;;3.33;1.98;;;8.70;99.90;;;8.39;96.54;96769.84;5003156;28;20044;-39
2022/05/31 04:43:56;;;;;;;2.42;1.90;;;8.90;99.90;;;8.47;95.28;96761.69;4999525;28;20410;-38
2022/05/31 04:46:25;;;;;;;5.10;2.10;;;9.00;99.90;;;8.59;93.95;96769.94;5000689;28;20048;-39
2022/05/31 04:48:56;;;;;;;3.42;2.10;;;9.10;99.90;;;8.72;93.11;96774.72;4990917;28;20458;-38
2022/05/31 04:51:23;;;;;;;5.35;2.30;;;9.20;99.90;;;8.82;92.27;96773.44;5002465;28;20628;-39
2022/05/31 04:53:49;;;;;;;3.85;2.20;;;9.30;99.90;;;8.95;91.36;96779.94;5002031;28;20048;-39
2022/05/31 04:56:19;;;;;;;4.85;2.60;;;9.40;99.90;;;9.07;90.74;96780.38;5009512;28;20041;-39
2022/05/31 04:58:48;;;;;;;5.05;2.47;;;9.50;99.90;;;9.20;90.66;96778.09;5009683;28;20030;-39
2022/05/31 05:01:14;;;;;;;4.78;2.30;;;9.60;99.90;;;9.38;89.91;96769.41;5006455;28;20463;-39
2022/05/31 05:03:41;;;;;;;7.75;2.95;;;9.80;99.90;;;9.63;88.72;96768.38;5011369;28;20645;-40
2022/05/31 05:06:10;;;;;;;5.03;2.47;;;10.00;99.90;;;10.19;87.68;96778.16;5001941;28;20033;-39
2022/05/31 05:08:37;;;;;;;4.25;2.50;;;10.30;99.90;;;11.01;84.25;96771.75;5003920;28;20040;-39
2022/05/31 05:11:07;;;;;;;2.90;2.10;;;10.80;99.90;;;12.29;77.51;96776.69;4999291;28;20041;-39
2022/05/31 05:13:33;;;;;;;6.53;2.33;;;11.60;99.90;;;13.61;68.68;96775.53;5005626;28;20457;-39
2022/05/31 05:16:00;;;;;;;3.45;1.73;;;12.50;99.90;;;14.96;62.09;96774.31;5006932;28;20544;-39
2022/05/31 05:18:27;;;;;;;3.65;1.80;;;13.40;99.90;;;15.94;55.71;96777.59;5005611;28;20453;-39
2022/05/31 05:20:53;;;;;;;4.28;2.30;;;14.30;99.90;;;16.74;51.76;96779.97;5000403;28;21361;-39
2022/05/31 05:23:19;;;;;;;4.63;2.22;;;15.10;99.90;;;17.45;49.60;96772.19;5010818;28;20092;-39
2022/05/31 05:25:50;;;;;;;2.47;1.67;;;15.70;99.80;;;17.94;48.19;96773.84;5005573;28;20063;-39
2022/05/31 05:31:00;;;;;;;2.70;1.67;;;16.60;97.70;;;17.75;49.53;96769.88;5006336;28;22890;-40
2022/05/31 05:33:27;;;;;;;2.38;1.70;;;16.60;97.30;;;17.24;50.33;96785.28;5009197;28;20460;-40
2022/05/31 05:35:53;;;;;;;2.72;1.73;;;16.30;97.10;;;16.57;50.83;96768.72;5007637;28;20038;-39
2022/05/31 05:38:19;;;;;;;4.07;2.17;;;16.00;96.60;;;15.95;51.34;96752.69;5008330;28;20056;-39
2022/05/31 05:40:44;;;;;;;4.07;2.00;;;15.60;96.40;;;15.65;52.68;96772.44;5007140;28;20079;-40
2022/05/31 05:43:10;;;;;;;3.13;1.90;;;15.40;96.70;;;15.34;53.70;96762.97;5004467;28;20489;-39
2022/05/31 05:45:37;;;;;;;3.85;1.98;;;15.20;97.00;;;15.22;53.60;96775.28;5007077;28;20084;-40
2022/05/31 05:48:04;;;;;;;5.13;1.80;;;15.10;96.60;;;15.05;53.21;96771.91;5001456;28;20041;-40
2022/05/31 05:50:30;;;;;;;3.15;2.10;;;15.00;96.10;;;14.77;53.99;96777.28;4999752;28;20045;-39
2022/05/31 05:53:01;;;;;;;5.28;2.33;;;14.80;96.20;;;14.32;54.67;96774.75;4995222;28;20578;-40
2022/05/31 05:55:26;;;;;;;3.47;1.90;;;14.60;96.20;;;13.93;56.35;96774.44;5000247;28;20033;-39
2022/05/31 05:57:52;;;;;;;2.55;2.08;;;14.20;97.10;;;13.61;58.83;96764.94;4992538;28;20033;-40
2022/05/31 06:00:19;;;;;;;3.10;2.13;;;13.90;97.60;;;13.60;60.17;96769.34;5013436;28;20044;-40
2022/05/31 06:02:50;;;;;;;6.72;2.72;;;13.80;98.50;;;13.71;60.13;96768.72;5005883;28;20389;-39
2022/05/31 06:05:22;;;;;;;4.33;2.10;;;13.90;98.50;;;14.02;59.96;96774.84;5000694;28;20037;-40
2022/05/31 06:08:02;;;;;;;3.53;2.30;;;14.20;98.70;;;14.45;57.23;96774.84;5002131;28;20327;-40
2022/05/31 06:10:37;;;;;;;5.15;2.35;;;14.60;98.00;;;14.85;56.57;96769.69;5009865;28;20057;-39
2022/05/31 06:13:11;;;;;;;5.22;2.20;;;15.00;97.50;;;15.07;53.35;96780.66;5004744;28;20063;-40
2022/05/31 06:15:43;;;;;;;4.13;2.42;;;15.20;96.10;;;14.95;53.13;96780.56;5004753;28;20025;-40
2022/05/31 06:18:16;;;;;;;3.45;2.50;;;15.30;95.10;;;14.95;53.30;96783.22;5010734;28;20040;-39
2022/05/31 06:20:47;;;;;;;8.10;2.80;;;15.20;95.10;;;14.96;55.04;96775.16;5009184;28;20289;-39
2022/05/31 06:23:14;;;;;;;3.88;2.10;;;15.30;95.70;;;15.15;54.93;96780.13;5011242;28;20052;-40
2022/05/31 06:25:40;;;;;;;3.72;2.13;;;15.40;95.80;;;15.23;54.41;96776.97;5008034;28;20033;-39
2022/05/31 06:28:06;;;;;;;4.68;2.13;;;15.50;95.60;;;15.29;53.40;96781.91;5023983;23;20136;-39
2022/05/31 06:30:31;;;;;;;6.07;2.30;;;15.50;95.20;;;15.33;52.99;96772.75;5011120;28;20477;-40
2022/05/31 06:32:57;;;;;;;4.30;1.88;;;15.60;95.00;;;15.51;53.71;96777.81;5005231;28;20021;-40
2022/05/31 06:35:23;;;;;;;4.05;2.05;;;15.70;95.10;;;15.60;53.15;96779.84;5010119;28;20033;-47
2022/05/31 06:37:48;;;;;;;5.38;2.05;;;15.80;94.70;;;15.49;52.82;96783.22;5003518;28;20092;-39
2022/05/31 06:40:15;;;;;;;8.20;2.03;;;15.80;94.60;;;15.50;52.27;96770.78;5013246;28;20040;-40
2022/05/31 06:42:41;;;;;;;3.42;1.83;;;15.80;94.40;;;15.76;53.26;96769.91;5010765;28;20030;-40
2022/05/31 06:45:07;;;;;;;3.42;2.30;;;16.00;94.90;;;16.00;52.16;96778.00;5011564;28;20111;-40
2022/05/31 06:47:33;;;;;;;2.45;1.65;;;16.30;94.20;;;16.17;50.82;96782.19;5009985;28;20285;-38
2022/05/31 06:49:59;;;;;;;3.67;1.92;;;16.50;93.70;;;16.26;50.33;96783.38;5012595;28;20040;-37
2022/05/31 06:57:53;;;;;;;3.60;2.00;;;16.60;92.80;;;16.56;51.74;96788.34;5011350;28;20045;-42
2022/05/31 07:00:50;;;;;;;3.78;1.70;;;16.80;93.40;;;16.55;49.12;96773.31;5011183;28;20080;-40
2022/05/31 07:03:15;;;;;;;3.53;2.13;;;17.00;92.00;;;16.71;47.80;96788.22;5009646;28;20029;-41
2022/05/31 07:05:41;;;;;;;2.38;1.65;;;17.00;91.00;;;16.83;47.98;96783.78;5005972;28;20038;-41
2022/05/31 07:08:07;;;;;;;2.22;1.60;;;17.10;91.10;;;16.98;48.31;96780.06;5009208;28;20715;-41
2022/05/31 07:10:33;;;;;;;2.95;1.73;;;17.30;91.30;;;17.26;47.03;96784.22;5010386;28;20041;-39
2022/05/31 07:12:58;;;;;;;5.00;2.00;;;17.50;91.00;;;17.42;46.46;96780.41;5006529;28;20068;-42
2022/05/31 07:15:25;;;;;;;4.63;1.63;;;17.60;90.40;;;17.67;46.99;96771.44;5014303;28;20092;-41
2022/05/31 07:17:51;;;;;;;7.22;2.08;;;17.90;90.20;;;17.74;46.80;96768.16;5010583;28;20113;-41
2022/05/31 07:20:17;;;;;;;4.78;1.95;;;18.00;90.40;;;17.77;46.38;96759.09;5017878;28;20030;-41
2022/05/31 07:22:42;;;;;;;6.13;2.10;;;18.00;90.00;;;17.69;45.58;96757.03;5012393;28;20036;-40
2022/05/31 07:25:09;;;;;;;3.92;1.65;;;18.00;88.30;;;17.57;47.21;96757.97;5012648;28;20038;-41
2022/05/31 07:27:36;;;;;;;5.38;2.03;;;17.80;89.60;;;17.40;47.22;96759.22;5012026;28;20497;-41
2022/05/31 07:30:04;;;;;;;3.67;1.80;;;17.60;89.50;;;17.21;48.16;96767.75;5009470;28;20029;-41
2022/05/31 07:32:30;;;;;;;3.67;2.03;;;17.50;90.10;;;17.09;47.65;96758.81;5014076;28;20041;-41
2022/05/31 07:34:56;;;;;;;4.78;1.70;;;17.30;90.20;;;17.02;49.29;96757.56;5010621;28;20124;-41
2022/05/31 07:37:22;;;;;;;3.97;2.20;;;17.30;90.60;;;17.06;49.11;96764.38;5018510;28;20017;-40
2022/05/31 07:39:48;;;;;;;6.43;1.98;;;17.30;91.00;;;17.14;48.15;96774.47;5008180;28;20044;-42
2022/05/31 07:42:14;;;;;;;4.28;2.00;;;17.40;90.40;;;17.36;47.55;96774.56;5011567;28;20037;-42
2022/05/31 07:44:40;;;;;;;5.47;1.80;;;17.50;89.80;;;17.54;48.52;96775.03;5013539;28;20057;-41
2022/05/31 07:47:06;;;;;;;2.80;1.70;;;17.70;90.40;;;17.84;48.29;96772.84;5009962;28;20679;-38
2022/05/31 07:49:31;;;;;;;3.03;1.80;;;18.00;90.50;;;18.05;47.67;96760.53;5012390;28;20083;-42
2022/05/31 07:51:57;;;;;;;5.05;1.60;;;18.30;90.10;;;18.25;47.03;96763.47;5014988;28;20040;-42
2022/05/31 07:54:23;;;;;;;4.38;1.90;;;18.40;88.90;;;18.37;46.61;96780.34;5012833;28;20074;-41
2022/05/31 07:56:48;;;;;;;5.15;2.10;;;18.60;89.20;;;18.53;46.62;96771.97;5013102;28;20029;-43
2022/05/31 07:59:15;;;;;;;4.55;1.73;;;18.80;87.90;;;18.63;45.46;96765.78;5011190;28;20091;-42
2022/05/31 08:01:41;;;;;;;3.80;1.77;;;18.90;87.30;;;18.71;46.27;96767.84;5015132;28;20041;-42
2022/05/31 08:04:07;;;;;;;3.13;1.70;;;18.90;86.70;;;18.77;46.80;96767.38;5007133;28;20038;-43
2022/05/31 08:06:35;;;;;;;2.30;1.48;;;18.90;86.70;;;18.73;44.75;96768.56;5009813;28;20439;-42
2022/05/31 08:09:02;;;;;;;3.03;1.20;;;19.00;86.00;;;18.73;46.19;96765.88;5013426;28;20060;-42
2022/05/31 08:11:32;;;;;;;2.45;1.10;;;19.00;86.60;;;18.76;44.89;96764.81;5014883;28;20467;-42
2022/05/31 08:13:58;;;;;;;2.72;1.10;;;18.90;85.10;;;18.75;45.00;96757.75;5013763;28;20136;-41
2022/05/31 08:16:28;;;;;;;2.28;1.48;;;18.90;84.40;;;18.66;45.36;96754.88;5015456;28;20049;-41
2022/05/31 08:18:55;;;;;;;1.33;1.10;;;18.90;85.50;;;18.63;44.38;96763.13;5008713;28;20033;-42
2022/05/31 08:21:30;;;;;;;1.75;1.10;;;18.90;84.40;;;18.67;45.12;96756.56;5016011;28;20032;-42
2022/05/31 08:24:03;;;;;;;2.28;1.20;;;18.80;84.20;;;18.64;44.57;96751.44;5010771;28;20029;-43
2022/05/31 08:26:28;;;;;;;2.60;1.13;;;18.90;84.10;;;18.64;44.14;96746.09;5013209;28;20029;-42
2022/05/31 08:28:54;;;;;;;3.72;1.20;;;18.90;82.60;;;18.60;44.15;96754.50;5012809;28;20033;-42
2022/05/31 08:31:31;;;;;;;3.17;1.50;;;18.80;82.10;;;18.47;43.76;96750.13;5009071;28;20068;-42
2022/05/31 08:33:57;;;;;;;2.22;1.00;;;18.80;81.50;;;18.58;44.62;96740.44;5025341;28;20029;-43
2022/05/31 08:36:23;;;;;;;1.70;1.08;;;18.80;82.80;;;18.71;45.23;96735.78;5014305;28;20037;-41
2022/05/31 08:38:49;;;;;;;3.13;1.40;;;18.90;83.90;;;18.79;43.73;96740.50;5012034;28;20160;-42
2022/05/31 08:41:36;;;;;;;1.75;1.20;;;19.00;82.20;;;18.81;44.42;96736.78;5012784;28;20390;-42
2022/05/31 08:44:32;;;;;;;2.97;1.63;;;19.00;82.30;;;19.02;44.00;96736.88;5009849;28;20033;-43
2022/05/31 08:47:44;;;;;;;3.90;1.30;;;19.20;83.00;;;19.21;44.69;96730.84;5012464;28;20029;-41
2022/05/31 08:53:26;;;;;;;;;;;19.60;80.80;;;19.78;42.57;96741.34;5012773;28;20087;-42
2022/05/31 08:59:13;;;;;;;4.57;1.40;;;20.20;81.10;;;20.37;42.43;96751.41;5012492;28;20523;-41
2022/05/31 09:01:50;;;;;;;2.47;1.00;;;20.50;80.70;;;20.58;42.19;96745.16;5011771;28;20175;-43
2022/05/31 09:04:35;;;;;;;1.45;1.00;;;20.70;79.50;;;20.78;41.35;96741.59;5034699;28;20382;-43
2022/05/31 09:07:09;;;;;;;2.35;1.30;;;20.90;78.10;;;20.76;40.83;96746.25;5017721;28;20081;-43
2022/05/31 09:10:24;;;;;;;2.15;1.00;;;21.00;76.20;;;20.84;40.78;96736.69;5009047;28;20576;-43
2022/05/31 09:12:59;;;;;;;3.03;1.23;;;21.00;76.20;;;21.03;40.98;96749.28;5014088;28;20359;-43
2022/05/31 09:15:59;;;;;;;2.00;1.38;;;21.20;75.70;;;21.13;41.09;96747.47;5012830;28;20029;-42
2022/05/31 09:18:45;;;;;;;2.25;1.02;;;21.40;75.80;;;21.41;41.10;96748.50;5011902;28;20308;-42
2022/05/31 09:21:38;;;;;;;1.40;1.13;;;21.60;75.90;;;21.58;40.54;96735.41;5018471;28;20025;-42
2022/05/31 09:24:08;;;;;;;1.67;1.10;;;21.80;74.70;;;21.47;38.65;96745.28;5028650;28;20053;-42
2022/05/31 09:27:04;;;;;;;4.32;1.17;;;21.80;71.30;;;21.43;38.10;96740.31;5004695;28;20045;-41
2022/05/31 09:29:57;;;;;;;2.40;1.40;;;21.70;70.30;;;21.33;37.66;96741.13;5012199;28;20048;-42
2022/05/31 09:32:50;;;;;;;1.35;1.10;;;21.70;69.20;;;21.21;37.58;96741.41;5015034;28;20025;-41
2022/05/31 09:35:44;;;;;;;1.98;1.20;;;21.50;68.80;;;21.33;38.34;96751.00;5012883;28;20060;-43
2022/05/31 09:38:32;;;;;;;3.58;1.10;;;21.50;70.20;;;21.27;37.85;96746.22;5010798;28;20565;-42
2022/05/31 09:41:26;;;;;;;2.60;1.23;;;21.60;68.30;;;21.27;38.82;96746.22;5009242;28;20040;-42
2022/05/31 09:44:38;;;;;;;1.30;0.82;;;21.60;69.90;;;21.35;38.96;96749.03;5006563;28;20029;-41
2022/05/31 09:47:22;;;;;;;1.38;1.00;;;21.50;71.00;;;21.21;39.27;96742.28;4988274;28;20097;-42
2022/05/31 09:49:51;;;;;;;1.92;1.10;;;21.40;70.80;;;21.15;40.55;96738.28;5011868;28;20037;-42
2022/05/31 09:52:58;;;;;;;4.20;1.20;;;21.30;72.50;;;20.91;39.01;96749.38;5012026;28;20033;-42
2022/05/31 09:58:26;;;;;;;2.33;1.15;;;21.00;69.20;;;20.83;43.25;96734.97;5007905;28;20120;-42
2022/05/31 10:01:15;;;;;;;3.67;1.30;;;21.00;74.80;;;20.79;42.94;96697.72;5009874;28;20057;-42
2022/05/31 10:03:48;;;;;;;2.85;1.45;;;21.10;76.20;;;21.23;41.52;96739.41;5012540;28;20030;-42
2022/05/31 10:06:27;;;;;;;3.40;1.17;;;21.40;74.30;;;21.45;41.02;96744.56;5014010;28;20378;-42
2022/05/31 10:08:55;;;;;;;2.35;1.15;;;21.60;73.80;;;21.54;38.84;96743.72;5012591;28;20095;-43
2022/05/31 10:11:37;;;;;;;4.55;1.52;;;21.80;69.60;;;21.81;39.68;96727.91;5010265;28;20021;-42
2022/05/31 10:14:15;;;;;;;4.88;1.33;;;22.10;70.80;;;22.29;39.85;96732.34;5010211;28;20041;-43
2022/05/31 10:16:43;;;;;;;1.88;1.17;;;22.50;71.50;;;22.60;39.78;96718.66;5007083;28;20053;-43
2022/05/31 10:19:25;;;;;;;1.98;1.30;;;22.90;71.30;;;22.86;36.94;96721.47;5012193;28;20074;-42
2022/05/31 10:21:51;;;;;;;;;;;23.20;66.60;;;23.11;37.01;96714.56;5009478;28;20072;-46
2022/05/31 10:24:26;;;;;;;4.35;1.40;;;23.40;67.50;;;23.18;37.46;96720.19;5010161;28;19947;-43
2022/05/31 10:27:11;;;;;;;1.35;1.00;;;23.50;66.20;;;23.34;38.05;96717.66;5000132;28;23832;-41
2022/05/31 10:29:46;;;;;;;8.48;1.58;;;23.60;67.30;;;23.17;38.05;96727.44;5007348;28;20221;-43
2022/05/31 10:32:43;;;;;;;6.35;1.33;;;23.60;67.30;;;22.90;39.46;96722.91;5007585;28;20025;-42
2022/05/31 10:35:35;;;;;;;3.28;1.70;;;23.50;69.30;;;22.77;40.36;96723.22;5013810;28;20040;-43
2022/05/31 10:38:16;;;;;;;4.03;1.50;;;23.20;70.40;;;22.54;40.98;96720.09;5011318;28;20033;-42
2022/05/31 10:40:45;;;;;;;2.17;1.40;;;23.00;72.00;;;22.43;41.53;96729.19;5011039;28;20032;-44
2022/05/31 10:43:38;;;;;;;2.60;1.90;;;22.80;71.60;;;22.07;43.69;96720.94;5015499;28;20123;-42
2022/05/31 10:46:09;;;;;;;;;;;22.50;72.50;;;21.89;42.77;96715.47;5013806;28;20071;-44
2022/05/31 10:48:49;;;;;;;5.55;1.50;;;22.30;72.80;;;21.66;44.57;96725.66;5011265;28;19917;-42
2022/05/31 10:52:03;;;;;;;2.15;1.55;;;22.20;76.50;;;21.71;41.24;96728.75;5001116;28;20046;-44
2022/05/31 10:55:01;;;;;;;3.70;1.58;;;22.10;71.60;;;21.91;43.35;96717.97;5009339;28;20195;-42
2022/05/31 10:57:42;;;;;;;5.03;1.52;;;22.20;73.80;;;22.08;42.56;96727.97;5011311;28;20543;-43
2022/05/31 11:00:20;;;;;;;3.65;1.40;;;22.30;76.70;;;22.18;42.15;96730.66;5011406;28;20044;-44
2022/05/31 11:03:14;;;;;;;2.80;1.60;;;22.50;74.10;;;22.11;43.90;96721.50;5005522;28;20037;-45
2022/05/31 11:06:02;;;;;;;3.33;1.50;;;22.40;74.70;;;22.01;42.79;96724.19;5002161;28;20045;-43